createdAt,value
2022-10-05T00:02:24.123Z,48.17
2022-10-05T00:04:55.684Z,48.28
2022-10-05T00:07:24.286Z,45.60
2022-10-05T00:10:00.308Z,44.78
2022-10-05T00:12:29.886Z,45.25
2022-10-05T00:15:00.903Z,45.67
2022-10-05T00:17:29.419Z,45.38
2022-10-05T00:19:56.331Z,45.13
2022-10-05T00:22:29.064Z,43.90
2022-10-05T00:24:58.552Z,45.53
2022-10-05T00:27:29.918Z,43.67
2022-10-05T00:30:00.137Z,51.92
2022-10-05T00:32:27.064Z,52.00
2022-10-05T00:34:53.958Z,50.65
2022-10-05T00:37:20.535Z,50.42
2022-10-05T00:39:47.071Z,47.63
2022-10-05T00:42:19.790Z,46.90
2022-10-05T00:44:46.215Z,47.10
2022-10-05T00:47:44.765Z,44.72
2022-10-05T00:50:18.197Z,39.40
2022-10-05T00:52:53.653Z,34.88
2022-10-05T00:55:43.496Z,32.28
2022-10-05T00:58:23.332Z,31.85
2022-10-05T01:00:58.787Z,29.20
2022-10-05T01:03:57.149Z,26.50
2022-10-05T01:06:48.682Z,23.48
2022-10-05T01:09:31.410Z,24.02
2022-10-05T01:12:27.616Z,22.75
2022-10-05T01:15:08.691Z,23.65
2022-10-05T01:17:35.126Z,25.38
2022-10-05T01:20:16.786Z,25.70
2022-10-05T01:22:49.147Z,28.23
2022-10-05T01:25:37.347Z,26.00
2022-10-05T01:31:26.760Z,27.58
2022-10-05T01:34:25.116Z,26.23
2022-10-05T01:37:02.933Z,27.40
2022-10-05T01:39:40.775Z,26.17
2022-10-05T01:42:17.958Z,27.23
2022-10-05T01:45:17.214Z,27.00
2022-10-05T01:47:46.914Z,29.88
2022-10-05T01:50:26.782Z,26.95
2022-10-05T01:53:11.285Z,29.65
2022-10-05T01:55:43.019Z,30.08
2022-10-05T01:58:24.443Z,29.77
2022-10-05T02:01:49.078Z,31.48
2022-10-05T02:04:42.774Z,31.42
2022-10-05T02:07:14.652Z,31.55
2022-10-05T02:09:52.033Z,30.73
2022-10-05T02:12:23.599Z,30.98
2022-10-05T02:14:57.435Z,31.55
2022-10-05T02:17:40.271Z,33.80
2022-10-05T02:20:11.400Z,35.45
2022-10-05T02:22:49.100Z,37.80
2022-10-05T02:25:23.409Z,40.22
2022-10-05T02:28:15.491Z,41.70
2022-10-05T02:30:47.559Z,44.95
2022-10-05T02:33:25.647Z,46.10
2022-10-05T02:35:52.191Z,48.00
2022-10-05T02:38:33.715Z,46.80
2022-10-05T02:41:34.134Z,48.90
2022-10-05T02:44:20.913Z,48.30
2022-10-05T02:47:02.681Z,49.10
2022-10-05T02:49:53.601Z,49.92
2022-10-05T02:52:32.191Z,52.33
2022-10-05T02:54:59.086Z,51.35
2022-10-05T02:57:34.299Z,52.92
2022-10-05T03:00:13.042Z,50.55
2022-10-05T03:03:03.833Z,51.75
2022-10-05T03:05:38.542Z,52.10
2022-10-05T03:10:48.985Z,51.08
2022-10-05T03:13:32.627Z,54.00
2022-10-05T03:16:06.485Z,53.28
2022-10-05T03:18:54.794Z,62.40
2022-10-05T03:21:52.332Z,53.28
2022-10-05T03:25:06.046Z,51.90
2022-10-05T03:27:41.695Z,54.00
2022-10-05T03:30:15.905Z,54.67
2022-10-05T03:33:21.106Z,54.17
2022-10-05T03:35:53.835Z,53.33
2022-10-05T03:38:37.911Z,50.90
2022-10-05T03:41:31.613Z,51.95
2022-10-05T03:44:39.501Z,50.97
2022-10-05T03:47:28.863Z,48.70
2022-10-05T03:50:26.459Z,44.67
2022-10-05T03:53:01.267Z,46.80
2022-10-05T03:55:40.923Z,45.80
2022-10-05T03:58:19.089Z,43.90
2022-10-05T04:00:49.953Z,41.85
2022-10-05T04:03:24.745Z,46.45
2022-10-05T04:05:58.630Z,40.97
2022-10-05T04:08:30.947Z,41.70
2022-10-05T04:11:01.918Z,40.75
2022-10-05T04:13:37.649Z,42.38
2022-10-05T04:16:11.412Z,37.55
2022-10-05T04:18:48.782Z,43.30
2022-10-05T04:21:26.327Z,42.38
2022-10-05T04:24:19.802Z,35.42
2022-10-05T04:26:59.786Z,34.42
2022-10-05T04:29:48.285Z,31.48
2022-10-05T04:32:20.585Z,31.27
2022-10-05T04:35:03.110Z,31.33
2022-10-05T04:37:48.050Z,31.52
2022-10-05T04:41:00.309Z,30.75
2022-10-05T04:43:43.011Z,30.50
2022-10-05T04:46:40.233Z,29.58
2022-10-05T04:49:24.819Z,29.17
2022-10-05T04:52:11.989Z,28.85
2022-10-05T04:55:15.691Z,28.65
2022-10-05T04:58:02.299Z,27.52
2022-10-05T05:00:40.753Z,27.80
2022-10-05T05:03:15.520Z,28.73
2022-10-05T05:08:57.383Z,27.02
2022-10-05T05:11:54.466Z,28.15
2022-10-05T05:14:24.126Z,27.33
2022-10-05T05:17:32.322Z,29.10
2022-10-05T05:20:24.900Z,27.55
2022-10-05T05:22:57.306Z,28.88
2022-10-05T05:25:40.103Z,30.08
2022-10-05T05:28:17.965Z,29.35
2022-10-05T05:30:52.399Z,29.90
2022-10-05T05:33:20.926Z,29.77
2022-10-05T05:36:02.679Z,29.88
2022-10-05T05:38:44.558Z,30.10
2022-10-05T05:41:22.679Z,31.17
2022-10-05T05:44:05.886Z,31.63
2022-10-05T05:47:02.808Z,30.80
2022-10-05T05:49:45.953Z,31.00
2022-10-05T05:52:25.510Z,30.95
2022-10-05T05:55:01.108Z,31.15
2022-10-05T05:57:48.563Z,33.13
2022-10-05T06:00:15.034Z,34.42
2022-10-05T06:02:52.822Z,33.65
2022-10-05T06:05:25.006Z,35.72
2022-10-05T06:07:53.866Z,35.83
2022-10-05T06:10:41.548Z,35.83
2022-10-05T06:13:17.339Z,37.03
2022-10-05T06:15:43.807Z,36.28
2022-10-05T06:18:20.317Z,39.35
2022-10-05T06:21:03.587Z,38.97
2022-10-05T06:23:39.213Z,40.78
2022-10-05T06:26:21.194Z,42.05
2022-10-05T06:29:00.749Z,46.03
2022-10-05T06:31:58.919Z,44.78
2022-10-05T06:35:04.930Z,45.03
2022-10-05T06:40:01.368Z,44.38
2022-10-05T06:42:45.098Z,51.03
2022-10-05T06:45:17.594Z,53.65
2022-10-05T06:48:02.817Z,57.70
2022-10-05T06:50:48.540Z,56.28
2022-10-05T06:53:27.969Z,61.65
2022-10-05T06:56:10.107Z,69.15
2022-10-05T06:58:45.359Z,75.78
2022-10-05T07:01:35.237Z,80.70
2022-10-05T07:04:13.932Z,82.72
2022-10-05T07:06:49.706Z,84.25
2022-10-05T07:09:25.256Z,88.10
2022-10-05T07:12:19.971Z,91.22
2022-10-05T07:15:15.349Z,87.40
2022-10-05T07:20:29.163Z,77.63
2022-10-05T07:25:50.096Z,71.60
2022-10-05T07:28:31.630Z,78.32
2022-10-05T07:31:17.555Z,77.53
2022-10-05T07:33:57.659Z,74.55
2022-10-05T07:37:03.082Z,71.97
2022-10-05T07:39:58.319Z,66.38
2022-10-05T07:42:36.378Z,64.78
2022-10-05T07:45:21.145Z,63.63
2022-10-05T07:47:55.038Z,63.20
2022-10-05T07:50:36.817Z,75.88
2022-10-05T07:53:22.904Z,76.13
2022-10-05T07:55:55.803Z,90.53
2022-10-05T07:58:38.501Z,118.63
2022-10-05T08:01:19.258Z,134.75
2022-10-05T08:03:54.422Z,158.40
2022-10-05T08:06:49.382Z,191.95
2022-10-05T08:11:57.642Z,189.77
2022-10-05T08:14:46.051Z,249.48
2022-10-05T08:17:25.602Z,220.77
2022-10-05T08:20:30.299Z,223.38
2022-10-05T08:23:19.759Z,150.88
2022-10-05T08:26:06.706Z,165.20
2022-10-05T08:28:42.625Z,178.52
2022-10-05T08:31:12.110Z,219.95
2022-10-05T08:34:10.681Z,87.03
2022-10-05T08:36:39.883Z,112.70
2022-10-05T08:39:16.081Z,230.07
2022-10-05T08:42:01.075Z,195.48
2022-10-05T08:44:49.535Z,54.38
2022-10-05T08:47:18.985Z,44.20
2022-10-05T08:50:07.507Z,44.00
2022-10-05T08:52:52.400Z,48.50
2022-10-05T08:58:18.643Z,66.10
2022-10-05T09:01:06.212Z,74.13
2022-10-05T09:03:35.766Z,109.28
2022-10-05T09:06:27.035Z,108.75
2022-10-05T09:09:15.046Z,105.78
2022-10-05T09:11:57.558Z,101.63
2022-10-05T09:14:52.472Z,106.47
2022-10-05T09:17:42.776Z,95.85
2022-10-05T09:20:18.521Z,94.05
2022-10-05T09:22:51.066Z,62.70
2022-10-05T09:25:46.543Z,53.13
2022-10-05T09:28:29.851Z,49.30
2022-10-05T09:31:22.645Z,52.63
2022-10-05T09:34:21.197Z,64.97
2022-10-05T09:36:47.599Z,125.43
2022-10-05T09:39:43.635Z,121.57
2022-10-05T09:42:16.178Z,142.77
2022-10-05T09:45:07.483Z,153.05
2022-10-05T09:47:46.171Z,166.23
2022-10-05T09:50:40.949Z,164.35
2022-10-05T09:53:32.922Z,119.90
2022-10-05T09:56:20.433Z,81.90
2022-10-05T09:59:18.044Z,72.53
2022-10-05T10:02:14.081Z,49.10
2022-10-05T10:05:01.757Z,46.40
2022-10-05T10:07:50.522Z,42.60
2022-10-05T10:10:29.262Z,40.42
2022-10-05T10:13:14.600Z,43.90
2022-10-05T10:16:13.449Z,44.60
2022-10-05T10:19:24.617Z,51.17
2022-10-05T10:22:05.982Z,43.55
2022-10-05T10:24:47.522Z,40.45
2022-10-05T10:27:35.674Z,45.15
2022-10-05T10:30:38.309Z,42.30
2022-10-05T10:33:31.656Z,46.63
2022-10-05T10:36:11.630Z,45.80
2022-10-05T10:38:59.467Z,36.60
2022-10-05T10:41:34.091Z,30.13
2022-10-05T10:44:38.025Z,25.77
2022-10-05T10:47:30.824Z,22.02
2022-10-05T10:50:04.990Z,17.55
2022-10-05T10:55:41.259Z,18.77
2022-10-05T10:58:26.540Z,16.92
2022-10-05T11:01:06.772Z,17.15
2022-10-05T11:04:03.790Z,16.73
2022-10-05T11:06:40.363Z,15.77
2022-10-05T11:09:08.273Z,15.88
2022-10-05T11:11:53.303Z,17.67
2022-10-05T11:14:22.712Z,19.15
2022-10-05T11:17:20.130Z,20.02
2022-10-05T11:20:04.368Z,24.98
2022-10-05T11:22:58.531Z,25.98
2022-10-05T11:26:01.541Z,22.98
2022-10-05T11:28:30.795Z,22.25
2022-10-05T11:31:19.137Z,17.42
2022-10-05T11:34:17.345Z,13.48
2022-10-05T11:36:53.710Z,15.18
2022-10-05T11:39:25.954Z,13.40
2022-10-05T11:42:10.869Z,14.73
2022-10-05T11:44:58.058Z,13.98
2022-10-05T11:47:29.187Z,14.10
2022-10-05T11:50:14.095Z,15.75
2022-10-05T11:52:52.210Z,14.38
2022-10-05T11:55:42.195Z,14.65
2022-10-05T11:58:25.411Z,13.05
2022-10-05T12:01:01.787Z,12.80
2022-10-05T12:03:58.718Z,12.85
2022-10-05T12:06:53.554Z,17.30
2022-10-05T12:09:40.944Z,12.05
2022-10-05T12:12:22.997Z,12.55
2022-10-05T12:15:02.808Z,12.63
2022-10-05T12:17:46.333Z,13.75
2022-10-05T12:20:26.577Z,12.20
2022-10-05T12:23:12.948Z,12.65
2022-10-05T12:25:49.787Z,12.25
2022-10-05T12:28:23.546Z,13.05
2022-10-05T12:34:05.478Z,12.30
2022-10-05T12:37:04.086Z,12.82
2022-10-05T12:39:50.002Z,13.07
2022-10-05T12:42:36.979Z,13.25
2022-10-05T12:45:18.116Z,13.60
2022-10-05T12:47:51.509Z,12.45
2022-10-05T12:50:20.955Z,12.00
2022-10-05T12:53:02.399Z,11.73
2022-10-05T12:55:40.893Z,12.20
2022-10-05T12:58:17.093Z,12.35
2022-10-05T13:01:05.284Z,12.10
2022-10-05T13:03:39.240Z,11.88
2022-10-05T13:06:12.591Z,12.30
2022-10-05T13:08:50.194Z,11.65
2022-10-05T13:11:32.495Z,12.48
2022-10-05T13:14:17.219Z,12.93
2022-10-05T13:16:54.785Z,13.25
2022-10-05T13:19:32.439Z,12.30
2022-10-05T13:22:27.372Z,13.75
2022-10-05T13:25:03.007Z,15.82
2022-10-05T13:27:38.292Z,12.90
2022-10-05T13:30:20.117Z,12.48
2022-10-05T13:33:04.298Z,12.32
2022-10-05T13:38:43.052Z,13.65
2022-10-05T13:41:34.340Z,12.85
2022-10-05T13:44:21.022Z,13.30
2022-10-05T13:47:12.503Z,12.93
2022-10-05T13:49:53.711Z,12.57
2022-10-05T13:52:56.234Z,14.85
2022-10-05T13:55:41.141Z,13.52
2022-10-05T13:58:12.943Z,13.48
2022-10-05T14:00:54.766Z,14.18
2022-10-05T14:03:38.490Z,13.48
2022-10-05T14:06:13.547Z,14.45
2022-10-05T14:08:52.696Z,14.30
2022-10-05T14:11:31.266Z,13.43
2022-10-05T14:14:14.663Z,13.63
2022-10-05T14:16:52.080Z,12.10
2022-10-05T14:19:40.164Z,14.45
2022-10-05T14:22:24.167Z,12.65
2022-10-05T14:24:56.539Z,13.65
2022-10-05T14:27:26.687Z,14.35
2022-10-05T14:29:58.332Z,13.05
2022-10-05T14:32:27.357Z,13.02
2022-10-05T14:35:15.647Z,13.50
2022-10-05T14:38:00.480Z,13.40
2022-10-05T14:40:37.916Z,14.50
2022-10-05T14:43:19.519Z,13.95
2022-10-05T14:46:23.100Z,13.77
2022-10-05T14:49:21.074Z,13.55
2022-10-05T14:51:49.136Z,13.38
2022-10-05T14:54:41.277Z,14.30
2022-10-05T14:57:33.531Z,13.55
2022-10-05T15:00:16.505Z,14.02
2022-10-05T15:03:19.810Z,14.00
2022-10-05T15:06:08.605Z,14.07
2022-10-05T15:08:45.245Z,14.77
2022-10-05T15:11:42.634Z,14.90
2022-10-05T15:14:19.688Z,14.05
2022-10-05T15:17:02.502Z,14.50
2022-10-05T15:19:38.523Z,14.10
2022-10-05T15:22:28.458Z,14.48
2022-10-05T15:25:23.111Z,15.07
2022-10-05T15:28:05.724Z,16.17
2022-10-05T15:30:37.808Z,17.15
2022-10-05T15:33:09.203Z,17.90
2022-10-05T15:35:48.035Z,17.10
2022-10-05T15:38:23.775Z,17.10
2022-10-05T15:41:02.359Z,18.88
2022-10-05T15:43:50.266Z,18.30
2022-10-05T15:46:34.508Z,19.75
2022-10-05T15:49:08.459Z,18.13
2022-10-05T15:51:37.875Z,20.23
2022-10-05T15:54:43.254Z,21.15
2022-10-05T15:57:27.684Z,24.45
2022-10-05T16:00:02.003Z,23.67
2022-10-05T16:02:51.997Z,22.40
2022-10-05T16:06:08.239Z,24.00
2022-10-05T16:08:53.113Z,25.77
2022-10-05T16:11:51.561Z,28.70
2022-10-05T16:14:38.904Z,27.77
2022-10-05T16:17:19.664Z,28.70
2022-10-05T16:20:20.653Z,30.27
2022-10-05T16:22:49.773Z,28.75
2022-10-05T16:25:20.254Z,32.60
2022-10-05T16:28:05.670Z,35.88
2022-10-05T16:30:58.802Z,36.17
2022-10-05T16:33:37.370Z,34.25
2022-10-05T16:36:10.367Z,36.08
2022-10-05T16:38:39.897Z,40.42
2022-10-05T16:41:15.198Z,42.53
2022-10-05T16:43:49.388Z,44.60
2022-10-05T16:46:43.520Z,45.78
2022-10-05T16:49:25.030Z,49.22
2022-10-05T16:52:05.508Z,49.95
2022-10-05T16:54:52.683Z,54.08
2022-10-05T16:57:28.564Z,54.70
2022-10-05T17:00:09.897Z,54.58
2022-10-05T17:03:04.627Z,48.53
2022-10-05T17:06:10.430Z,44.28
2022-10-05T17:09:11.091Z,41.05
2022-10-05T17:12:02.281Z,36.20
2022-10-05T17:14:28.735Z,27.23
2022-10-05T17:17:03.162Z,27.02
2022-10-05T17:20:00.409Z,26.60
2022-10-05T17:22:49.012Z,23.52
2022-10-05T17:25:40.046Z,23.25
2022-10-05T17:28:18.768Z,26.90
2022-10-05T17:31:06.570Z,27.52
2022-10-05T17:33:34.476Z,27.88
2022-10-05T17:36:04.611Z,29.58
2022-10-05T17:38:31.076Z,30.48
2022-10-05T17:41:00.483Z,27.40
2022-10-05T17:43:31.819Z,23.65
2022-10-05T17:46:00.734Z,25.17
2022-10-05T17:48:50.159Z,24.20
2022-10-05T17:51:47.602Z,24.55
2022-10-05T17:55:15.536Z,26.60
2022-10-05T17:57:42.172Z,33.70
2022-10-05T18:00:40.747Z,34.65
2022-10-05T18:03:41.590Z,45.10
2022-10-05T18:06:52.674Z,52.03
2022-10-05T18:09:33.203Z,61.63
2022-10-05T18:12:11.365Z,82.45
2022-10-05T18:15:01.477Z,87.28
2022-10-05T18:17:57.437Z,100.35
2022-10-05T18:20:23.934Z,109.63
2022-10-05T18:22:53.016Z,115.40
2022-10-05T18:25:27.201Z,115.90
2022-10-05T18:28:03.955Z,115.43
2022-10-05T18:30:40.671Z,116.95
2022-10-05T18:33:33.675Z,118.35
2022-10-05T18:36:37.872Z,111.97
2022-10-05T18:39:28.856Z,99.95
2022-10-05T18:42:14.242Z,95.50
2022-10-05T18:44:55.443Z,94.00
2022-10-05T18:47:49.617Z,89.82
2022-10-05T18:50:25.689Z,87.20
2022-10-05T18:53:02.623Z,84.20
2022-10-05T18:55:36.064Z,83.35
2022-10-05T18:58:02.593Z,85.20
2022-10-05T19:00:59.968Z,85.38
2022-10-05T19:03:39.880Z,84.18
2022-10-05T19:06:20.411Z,88.80
2022-10-05T19:09:13.287Z,94.28
2022-10-05T19:12:18.414Z,101.28
2022-10-05T19:15:17.122Z,100.63
2022-10-05T19:18:29.041Z,101.60
2022-10-05T19:21:07.042Z,109.07
2022-10-05T19:23:47.597Z,117.65
2022-10-05T19:26:15.828Z,129.35
2022-10-05T19:29:05.549Z,140.80
2022-10-05T19:31:49.781Z,137.70
2022-10-05T19:34:39.049Z,138.85
2022-10-05T19:37:14.228Z,138.90
2022-10-05T19:39:58.690Z,143.80
2022-10-05T19:43:03.172Z,151.40
2022-10-05T19:45:34.368Z,145.73
2022-10-05T19:48:07.556Z,151.88
2022-10-05T19:50:37.640Z,151.18
2022-10-05T19:53:22.898Z,151.20
2022-10-05T19:55:49.436Z,144.38
2022-10-05T19:58:27.629Z,149.40
2022-10-05T20:01:01.325Z,140.77
2022-10-05T20:03:30.282Z,140.45
2022-10-05T20:05:59.215Z,136.73
2022-10-05T20:08:27.607Z,128.98
2022-10-05T20:11:17.477Z,120.95
2022-10-05T20:14:06.773Z,111.72
2022-10-05T20:16:52.785Z,102.35
2022-10-05T20:19:47.676Z,101.10
2022-10-05T20:22:34.398Z,95.22
2022-10-05T20:25:06.237Z,87.00
2022-10-05T20:27:37.269Z,68.20
2022-10-05T20:30:05.272Z,69.43
2022-10-05T20:32:31.806Z,68.75
2022-10-05T20:34:58.421Z,67.35
2022-10-05T20:37:25.262Z,64.28
2022-10-05T20:39:52.091Z,57.22
2022-10-05T20:42:20.306Z,53.30
2022-10-05T20:44:47.006Z,49.17
2022-10-05T20:47:13.844Z,43.20
2022-10-05T20:49:41.350Z,40.28
2022-10-05T20:52:10.209Z,39.95
2022-10-05T20:54:38.117Z,38.75
2022-10-05T20:57:06.243Z,40.67
2022-10-05T20:59:33.742Z,40.00
2022-10-05T21:02:01.601Z,41.30
2022-10-05T21:04:40.872Z,43.25
2022-10-05T21:07:08.321Z,47.40
2022-10-05T21:09:37.929Z,47.03
2022-10-05T21:12:04.789Z,51.85
2022-10-05T21:14:34.259Z,55.83
2022-10-05T21:17:01.968Z,58.00
2022-10-05T21:19:29.501Z,60.75
2022-10-05T21:21:59.663Z,66.68
2022-10-05T21:24:26.311Z,66.65
2022-10-05T21:26:55.247Z,80.80
2022-10-05T21:29:22.138Z,68.13
2022-10-05T21:31:49.074Z,68.82
2022-10-05T21:34:15.794Z,69.13
2022-10-05T21:36:42.268Z,78.63
2022-10-05T21:39:08.799Z,82.65
2022-10-05T21:41:35.371Z,82.88
2022-10-05T21:44:02.090Z,91.15
2022-10-05T21:46:29.579Z,92.03
2022-10-05T21:48:56.283Z,98.53
2022-10-05T21:51:25.005Z,100.53
2022-10-05T21:53:55.595Z,100.63
2022-10-05T21:56:25.279Z,102.68
2022-10-05T21:58:52.239Z,107.00
2022-10-05T22:01:22.466Z,105.88
2022-10-05T22:03:49.640Z,106.50
2022-10-05T22:06:16.196Z,110.75
2022-10-05T22:08:42.755Z,110.10
2022-10-05T22:11:17.657Z,106.93
2022-10-05T22:13:47.634Z,109.65
2022-10-05T22:16:15.763Z,105.22
2022-10-05T22:18:42.902Z,104.70
2022-10-05T22:21:12.080Z,100.85
2022-10-05T22:23:43.569Z,95.35
2022-10-05T22:26:13.275Z,93.70
2022-10-05T22:28:40.946Z,96.15
2022-10-05T22:31:09.506Z,93.18
2022-10-05T22:33:37.064Z,90.93
2022-10-05T22:36:05.521Z,86.25
2022-10-05T22:38:32.614Z,84.28
2022-10-05T22:40:59.488Z,83.30
2022-10-05T22:43:27.091Z,84.03
2022-10-05T22:45:54.409Z,77.70
2022-10-05T22:48:20.978Z,76.35
2022-10-05T22:50:47.742Z,78.55
2022-10-05T22:53:14.864Z,75.85
2022-10-05T22:55:41.366Z,71.28
2022-10-05T22:58:07.916Z,68.10
2022-10-05T23:00:56.292Z,66.00
2022-10-05T23:03:21.040Z,65.13
2022-10-05T23:05:47.544Z,67.38
2022-10-05T23:08:14.097Z,67.50
2022-10-05T23:10:40.607Z,65.72
2022-10-05T23:13:07.388Z,73.90
2022-10-05T23:15:34.498Z,60.67
2022-10-05T23:18:01.050Z,59.92
2022-10-05T23:20:27.554Z,62.65
2022-10-05T23:22:54.074Z,61.72
2022-10-05T23:25:22.219Z,65.53
2022-10-05T23:27:48.872Z,58.38
2022-10-05T23:30:15.437Z,56.88
2022-10-05T23:32:44.388Z,60.13
2022-10-05T23:35:12.524Z,58.22
2022-10-05T23:37:41.409Z,57.60
2022-10-05T23:40:11.841Z,58.60
2022-10-05T23:42:39.894Z,61.85
2022-10-05T23:45:08.554Z,58.95
2022-10-05T23:47:35.036Z,58.53
2022-10-05T23:50:01.939Z,60.05
2022-10-05T23:52:28.447Z,58.70
2022-10-05T23:54:55.211Z,60.42
2022-10-05T23:57:21.935Z,62.70
2022-10-05T23:59:50.323Z,63.00
